createdAt,value
2023-04-18T00:01:45.717Z,99.90
2023-04-18T00:04:14.133Z,99.90
2023-04-18T00:06:41.186Z,99.90
2023-04-18T00:09:08.377Z,99.90
2023-04-18T00:11:35.190Z,99.90
2023-04-18T00:14:05.229Z,99.90
2023-04-18T00:16:33.505Z,99.90
2023-04-18T00:19:02.309Z,99.90
2023-04-18T00:21:29.995Z,99.90
2023-04-18T00:23:57.044Z,99.90
2023-04-18T00:26:23.848Z,1.00
2023-04-18T00:28:51.197Z,1.00
2023-04-18T00:31:17.874Z,1.00
2023-04-18T00:33:44.798Z,1.00
2023-04-18T00:36:11.436Z,1.00
2023-04-18T00:38:38.173Z,1.00
2023-04-18T00:41:05.214Z,1.00
2023-04-18T00:43:34.984Z,1.00
2023-04-18T00:46:01.734Z,1.00
2023-04-18T00:48:29.379Z,1.00
2023-04-18T00:50:56.571Z,1.00
2023-04-18T00:53:23.849Z,1.00
2023-04-18T00:55:50.744Z,1.00
2023-04-18T00:58:17.451Z,1.00
2023-04-18T01:00:44.674Z,1.00
2023-04-18T01:03:14.520Z,1.00
2023-04-18T01:05:41.461Z,1.00
2023-04-18T01:08:08.329Z,1.00
2023-04-18T01:10:36.403Z,1.00
2023-04-18T01:13:13.463Z,1.00
2023-04-18T01:15:42.455Z,69.40
2023-04-18T01:18:10.069Z,27.60
2023-04-18T01:20:41.524Z,99.90
2023-04-18T01:23:10.653Z,99.90
2023-04-18T01:25:38.742Z,99.90
2023-04-18T01:28:06.564Z,99.90
2023-04-18T01:30:34.329Z,99.90
2023-04-18T01:33:05.574Z,74.50
2023-04-18T01:35:35.328Z,59.20
2023-04-18T01:38:02.315Z,2.50
2023-04-18T01:40:29.995Z,30.80
2023-04-18T01:42:57.041Z,99.90
2023-04-18T01:45:24.133Z,99.90
2023-04-18T01:47:50.971Z,89.10
2023-04-18T01:50:17.814Z,99.90
2023-04-18T01:52:44.566Z,56.70
2023-04-18T01:55:11.342Z,94.80
2023-04-18T01:57:38.320Z,35.70
2023-04-18T02:00:06.591Z,32.60
2023-04-18T02:02:33.665Z,99.90
2023-04-18T02:05:00.659Z,99.90
2023-04-18T02:07:27.687Z,99.90
2023-04-18T02:09:54.476Z,95.10
2023-04-18T02:12:21.205Z,99.90
2023-04-18T02:14:54.172Z,99.90
2023-04-18T02:17:23.177Z,99.90
2023-04-18T02:19:51.332Z,99.90
2023-04-18T02:22:18.519Z,99.90
2023-04-18T02:24:45.848Z,99.90
2023-04-18T02:27:13.750Z,99.90
2023-04-18T02:29:40.505Z,99.90
2023-04-18T02:32:07.785Z,99.90
2023-04-18T02:34:35.843Z,99.90
2023-04-18T02:37:02.686Z,99.90
2023-04-18T02:39:29.345Z,99.90
2023-04-18T02:41:56.451Z,99.90
2023-04-18T02:44:23.163Z,99.90
2023-04-18T02:46:49.825Z,99.90
2023-04-18T02:49:16.527Z,99.90
2023-04-18T02:51:43.272Z,99.90
2023-04-18T02:54:09.973Z,99.90
2023-04-18T02:56:39.909Z,1.00
2023-04-18T02:59:07.362Z,1.00
2023-04-18T03:01:34.454Z,1.00
2023-04-18T03:04:01.766Z,1.00
2023-04-18T03:06:28.425Z,1.00
2023-04-18T03:08:55.924Z,1.00
2023-04-18T03:11:22.710Z,1.00
2023-04-18T03:13:49.441Z,1.00
2023-04-18T03:16:16.831Z,1.00
2023-04-18T03:18:43.678Z,1.00
2023-04-18T03:21:11.712Z,1.00
2023-04-18T03:23:38.549Z,1.00
2023-04-18T03:26:08.866Z,1.00
2023-04-18T03:28:35.769Z,1.00
2023-04-18T03:31:02.892Z,1.00
2023-04-18T03:33:29.561Z,99.90
2023-04-18T03:35:56.323Z,99.90
2023-04-18T03:38:23.114Z,99.90
2023-04-18T03:40:49.856Z,99.90
2023-04-18T03:43:16.968Z,99.90
2023-04-18T03:45:44.360Z,99.90
2023-04-18T03:48:11.091Z,99.90
2023-04-18T03:50:37.816Z,99.90
2023-04-18T03:53:04.528Z,99.90
2023-04-18T03:55:31.428Z,99.90
2023-04-18T03:57:59.154Z,99.90
2023-04-18T04:00:26.820Z,99.90
2023-04-18T04:02:53.686Z,99.90
2023-04-18T04:05:20.492Z,99.70
2023-04-18T04:07:50.454Z,99.90
2023-04-18T04:10:18.041Z,46.30
2023-04-18T04:12:44.805Z,64.70
2023-04-18T04:15:12.253Z,52.20
2023-04-18T04:17:39.277Z,37.50
2023-04-18T04:20:07.439Z,60.00
2023-04-18T04:22:34.477Z,99.90
2023-04-18T04:25:01.573Z,99.90
2023-04-18T04:27:28.449Z,99.90
2023-04-18T04:29:56.314Z,99.90
2023-04-18T04:32:24.010Z,99.90
2023-04-18T04:34:50.724Z,99.90
2023-04-18T04:37:22.121Z,99.90
2023-04-18T04:39:49.073Z,99.90
2023-04-18T04:42:15.782Z,99.90
2023-04-18T04:44:42.932Z,99.90
2023-04-18T04:47:09.976Z,99.90
2023-04-18T04:49:37.077Z,99.90
2023-04-18T04:52:04.392Z,1.00
2023-04-18T04:54:31.070Z,1.00
2023-04-18T04:56:57.956Z,1.00
2023-04-18T04:59:24.679Z,1.00
2023-04-18T05:01:51.481Z,1.00
2023-04-18T05:04:18.762Z,1.00
2023-04-18T05:06:46.729Z,1.00
2023-04-18T05:09:13.865Z,1.00
2023-04-18T05:11:40.722Z,1.00
2023-04-18T05:14:07.723Z,99.90
2023-04-18T05:16:34.596Z,99.90
2023-04-18T05:19:01.485Z,99.90
2023-04-18T05:21:29.289Z,99.90
2023-04-18T05:23:56.198Z,99.90
2023-04-18T05:26:23.199Z,99.90
2023-04-18T05:28:50.324Z,99.90
2023-04-18T05:31:17.970Z,99.90
2023-04-18T05:33:44.724Z,99.90
2023-04-18T05:36:11.842Z,99.90
2023-04-18T05:38:38.955Z,60.80
2023-04-18T05:41:05.725Z,80.30
2023-04-18T05:43:32.892Z,70.30
2023-04-18T05:45:59.578Z,1.00
2023-04-18T05:48:27.243Z,1.00
2023-04-18T05:50:53.982Z,1.00
2023-04-18T05:53:20.870Z,1.00
2023-04-18T05:55:48.848Z,1.00
2023-04-18T05:58:16.048Z,1.00
2023-04-18T06:00:43.224Z,1.00
2023-04-18T06:03:11.272Z,1.00
2023-04-18T06:05:39.110Z,1.00
2023-04-18T06:08:05.923Z,1.00
2023-04-18T06:10:33.122Z,1.00
2023-04-18T06:12:59.789Z,1.00
2023-04-18T06:15:26.450Z,1.00
2023-04-18T06:17:53.238Z,1.00
2023-04-18T06:20:20.250Z,1.00
2023-04-18T06:22:48.073Z,1.00
2023-04-18T06:25:16.389Z,1.00
2023-04-18T06:27:43.552Z,1.00
2023-04-18T06:30:11.477Z,1.00
2023-04-18T06:32:39.293Z,1.00
2023-04-18T06:35:07.037Z,1.00
2023-04-18T06:37:35.490Z,1.00
2023-04-18T06:40:02.802Z,99.90
2023-04-18T06:42:30.576Z,99.90
2023-04-18T06:44:58.063Z,99.90
2023-04-18T06:47:25.702Z,99.90
2023-04-18T06:49:52.993Z,1.00
2023-04-18T06:52:19.849Z,1.00
2023-04-18T06:54:46.720Z,1.00
2023-04-18T06:57:14.889Z,1.00
2023-04-18T06:59:43.595Z,99.90
2023-04-18T07:02:11.579Z,99.90
2023-04-18T07:04:39.257Z,99.90
2023-04-18T07:07:06.231Z,99.90
2023-04-18T07:09:33.236Z,99.90
2023-04-18T07:12:00.244Z,1.00
2023-04-18T07:14:27.357Z,1.00
2023-04-18T07:16:54.409Z,1.00
2023-04-18T07:19:21.266Z,1.00
2023-04-18T07:21:48.121Z,99.90
2023-04-18T07:24:15.463Z,99.90
2023-04-18T07:26:42.484Z,1.00
2023-04-18T07:29:09.904Z,1.00
2023-04-18T07:31:36.979Z,99.90
2023-04-18T07:34:04.886Z,99.90
2023-04-18T07:36:32.066Z,99.90
2023-04-18T07:38:59.284Z,99.90
2023-04-18T07:41:26.379Z,99.90
2023-04-18T07:43:53.388Z,99.90
2023-04-18T07:46:20.351Z,99.90
2023-04-18T07:48:47.646Z,99.90
2023-04-18T07:51:14.822Z,99.90
2023-04-18T07:53:43.374Z,99.90
2023-04-18T07:56:12.567Z,99.90
2023-04-18T07:58:39.492Z,99.90
2023-04-18T08:01:07.810Z,99.90
2023-04-18T08:03:37.132Z,1.00
2023-04-18T08:06:05.738Z,99.90
2023-04-18T08:08:32.626Z,99.90
2023-04-18T08:10:59.557Z,1.00
2023-04-18T08:13:26.795Z,99.90
2023-04-18T08:15:53.815Z,99.90
2023-04-18T08:18:21.183Z,99.90
2023-04-18T08:20:48.029Z,99.90
2023-04-18T08:23:15.093Z,99.90
2023-04-18T08:25:42.011Z,99.90
2023-04-18T08:28:09.122Z,99.90
2023-04-18T08:30:36.106Z,99.90
2023-04-18T08:33:03.098Z,99.90
2023-04-18T08:35:30.499Z,99.90
2023-04-18T08:37:57.458Z,99.90
2023-04-18T08:40:24.863Z,99.90
2023-04-18T08:42:53.284Z,99.90
2023-04-18T08:45:20.875Z,99.90
2023-04-18T08:47:48.039Z,1.00
2023-04-18T08:50:15.196Z,99.90
2023-04-18T08:52:48.854Z,99.90
2023-04-18T08:55:17.118Z,99.90
2023-04-18T08:57:45.046Z,99.90
2023-04-18T09:00:12.661Z,99.90
2023-04-18T09:02:47.126Z,99.90
2023-04-18T09:05:20.078Z,99.90
2023-04-18T09:07:53.108Z,99.90
2023-04-18T09:10:33.060Z,99.90
2023-04-18T09:13:03.553Z,99.90
2023-04-18T09:15:31.519Z,99.90
2023-04-18T09:18:03.374Z,99.90
2023-04-18T09:20:40.994Z,99.90
2023-04-18T09:23:14.442Z,99.90
2023-04-18T09:25:49.046Z,99.90
2023-04-18T09:28:32.215Z,99.90
2023-04-18T09:31:11.902Z,99.90
2023-04-18T09:33:43.280Z,99.90
2023-04-18T09:36:31.579Z,99.90
2023-04-18T09:38:58.764Z,99.90
2023-04-18T09:41:25.727Z,99.90
2023-04-18T09:44:11.665Z,99.90
2023-04-18T09:46:41.311Z,99.90
2023-04-18T09:49:10.813Z,99.90
2023-04-18T09:51:39.433Z,99.90
2023-04-18T09:54:06.971Z,99.90
2023-04-18T09:56:37.231Z,99.90
2023-04-18T09:59:09.365Z,99.90
2023-04-18T10:01:36.980Z,99.90
2023-04-18T10:04:06.764Z,99.90
2023-04-18T10:06:34.972Z,99.90
2023-04-18T10:09:04.797Z,99.90
2023-04-18T10:11:32.398Z,99.90
2023-04-18T10:14:04.383Z,99.90
2023-04-18T10:16:34.173Z,99.90
2023-04-18T10:19:25.660Z,99.90
2023-04-18T10:21:57.657Z,99.90
2023-04-18T10:24:49.862Z,99.90
2023-04-18T10:27:17.976Z,99.90
2023-04-18T10:29:51.828Z,99.90
2023-04-18T10:32:20.156Z,99.90
2023-04-18T10:34:47.949Z,99.90
2023-04-18T10:37:15.191Z,99.90
2023-04-18T10:39:49.268Z,99.90
2023-04-18T10:42:16.319Z,99.90
2023-04-18T10:44:43.230Z,99.90
2023-04-18T10:47:10.306Z,99.90
2023-04-18T10:49:37.225Z,99.90
2023-04-18T10:52:07.285Z,99.90
2023-04-18T10:54:57.080Z,99.90
2023-04-18T10:57:37.264Z,99.90
2023-04-18T11:00:05.628Z,99.90
2023-04-18T11:02:33.518Z,99.90
2023-04-18T11:05:04.852Z,99.90
2023-04-18T11:07:41.893Z,99.90
2023-04-18T11:10:10.147Z,99.90
2023-04-18T11:12:39.119Z,99.90
2023-04-18T11:15:17.817Z,99.90
2023-04-18T11:17:44.988Z,99.90
2023-04-18T11:20:14.307Z,99.90
2023-04-18T11:22:48.527Z,99.90
2023-04-18T11:25:17.203Z,99.90
2023-04-18T11:27:46.210Z,99.90
2023-04-18T11:30:14.760Z,99.90
2023-04-18T11:32:42.976Z,99.90
2023-04-18T11:35:11.796Z,99.90
2023-04-18T11:37:40.020Z,99.90
2023-04-18T11:40:09.485Z,99.90
2023-04-18T11:42:39.117Z,99.90
2023-04-18T11:45:10.116Z,99.90
2023-04-18T11:47:37.113Z,99.90
2023-04-18T11:50:06.829Z,99.90
2023-04-18T11:52:35.617Z,99.90
2023-04-18T11:55:21.366Z,99.90
2023-04-18T11:57:59.201Z,99.90
2023-04-18T12:00:41.650Z,99.90
2023-04-18T12:03:16.393Z,99.90
2023-04-18T12:05:44.166Z,99.90
2023-04-18T12:08:21.059Z,98.90
2023-04-18T12:10:50.696Z,94.70
2023-04-18T12:13:18.708Z,85.00
2023-04-18T12:15:47.036Z,84.80
2023-04-18T12:18:16.634Z,96.60
2023-04-18T12:20:50.291Z,73.00
2023-04-18T12:23:34.594Z,86.60
2023-04-18T12:26:05.899Z,82.70
2023-04-18T12:28:34.777Z,65.50
2023-04-18T12:31:02.557Z,60.00
2023-04-18T12:33:30.420Z,63.60
2023-04-18T12:35:57.531Z,58.90
2023-04-18T12:38:24.669Z,65.40
2023-04-18T12:40:52.486Z,64.10
2023-04-18T12:43:19.910Z,61.60
2023-04-18T12:45:47.332Z,48.40
2023-04-18T12:48:14.261Z,51.30
2023-04-18T12:50:41.651Z,51.80
2023-04-18T12:53:08.469Z,50.60
2023-04-18T12:55:36.131Z,73.60
2023-04-18T12:58:03.636Z,53.00
2023-04-18T13:00:32.667Z,44.30
2023-04-18T13:02:59.932Z,47.30
2023-04-18T13:05:31.649Z,35.80
2023-04-18T13:08:15.274Z,37.40
2023-04-18T13:10:43.792Z,27.50
2023-04-18T13:13:10.872Z,18.50
2023-04-18T13:15:38.212Z,11.10
2023-04-18T13:18:06.712Z,7.80
2023-04-18T13:20:35.106Z,13.60
2023-04-18T13:23:05.531Z,7.80
2023-04-18T13:25:32.813Z,1.60
2023-04-18T13:28:00.835Z,3.80
2023-04-18T13:30:28.008Z,5.30
2023-04-18T13:32:55.316Z,4.80
2023-04-18T13:35:22.320Z,6.60
2023-04-18T13:37:49.203Z,5.90
2023-04-18T13:40:16.177Z,1.80
2023-04-18T13:42:43.306Z,3.90
2023-04-18T13:45:10.608Z,6.40
2023-04-18T13:47:37.819Z,1.00
2023-04-18T13:50:05.567Z,1.00
2023-04-18T13:52:32.820Z,1.00
2023-04-18T13:54:59.725Z,1.00
2023-04-18T13:57:26.580Z,1.00
2023-04-18T13:59:53.423Z,1.00
2023-04-18T14:02:20.677Z,1.00
2023-04-18T14:04:47.859Z,1.00
2023-04-18T14:07:15.018Z,1.00
2023-04-18T14:09:42.695Z,1.00
2023-04-18T14:12:09.603Z,1.00
2023-04-18T14:14:37.306Z,1.00
2023-04-18T14:17:04.200Z,1.00
2023-04-18T14:19:31.119Z,1.00
2023-04-18T14:21:58.040Z,1.00
2023-04-18T14:24:24.903Z,1.00
2023-04-18T14:26:51.924Z,1.00
2023-04-18T14:29:19.213Z,1.00
2023-04-18T14:31:46.347Z,1.00
2023-04-18T14:34:13.578Z,1.00
2023-04-18T14:36:40.660Z,1.00
2023-04-18T14:39:08.327Z,1.00
2023-04-18T14:41:35.421Z,1.00
2023-04-18T14:44:04.001Z,1.00
2023-04-18T14:46:31.037Z,1.00
2023-04-18T14:48:58.207Z,1.00
2023-04-18T14:51:26.097Z,1.00
2023-04-18T14:53:53.017Z,1.00
2023-04-18T14:56:21.521Z,1.00
2023-04-18T14:58:48.657Z,1.00
2023-04-18T15:01:17.511Z,1.00
2023-04-18T15:03:45.509Z,1.00
2023-04-18T15:06:13.224Z,1.00
2023-04-18T15:08:40.660Z,1.00
2023-04-18T15:11:08.192Z,1.00
2023-04-18T15:13:35.647Z,1.00
2023-04-18T15:16:02.927Z,1.00
2023-04-18T15:18:30.332Z,1.00
2023-04-18T15:21:01.222Z,1.00
2023-04-18T15:23:28.170Z,1.00
2023-04-18T15:25:55.650Z,1.00
2023-04-18T15:28:23.028Z,1.00
2023-04-18T15:30:50.404Z,1.00
2023-04-18T15:33:19.150Z,1.00
2023-04-18T15:35:49.789Z,1.00
2023-04-18T15:38:16.681Z,1.00
2023-04-18T15:40:44.266Z,1.00
2023-04-18T15:43:11.422Z,1.00
2023-04-18T15:45:38.265Z,1.00
2023-04-18T15:48:05.639Z,1.00
2023-04-18T15:50:33.835Z,1.00
2023-04-18T15:53:01.589Z,1.00
2023-04-18T15:55:28.603Z,1.00
2023-04-18T15:57:56.032Z,1.00
2023-04-18T16:00:23.319Z,1.00
2023-04-18T16:02:50.874Z,1.00
2023-04-18T16:05:18.074Z,1.00
2023-04-18T16:07:45.306Z,1.00
2023-04-18T16:10:12.941Z,1.00
2023-04-18T16:12:40.651Z,1.00
2023-04-18T16:15:09.386Z,1.00
2023-04-18T16:17:39.528Z,1.00
2023-04-18T16:20:08.522Z,1.00
2023-04-18T16:22:35.806Z,1.00
2023-04-18T16:25:03.866Z,1.00
2023-04-18T16:27:30.852Z,1.00
2023-04-18T16:29:58.076Z,1.00
2023-04-18T16:32:25.123Z,1.00
2023-04-18T16:34:52.271Z,1.00
2023-04-18T16:37:19.149Z,1.00
2023-04-18T16:39:46.957Z,1.00
2023-04-18T16:42:15.698Z,1.00
2023-04-18T16:44:44.723Z,1.00
2023-04-18T16:47:12.083Z,1.00
2023-04-18T16:49:39.467Z,1.00
2023-04-18T16:52:06.402Z,1.00
2023-04-18T16:54:33.487Z,1.00
2023-04-18T16:57:00.896Z,1.00
2023-04-18T16:59:27.843Z,1.00
2023-04-18T17:01:54.986Z,1.00
2023-04-18T17:04:23.352Z,1.00
2023-04-18T17:06:52.076Z,1.00
2023-04-18T17:09:19.794Z,1.00
2023-04-18T17:11:47.077Z,1.00
2023-04-18T17:14:14.506Z,1.00
2023-04-18T17:16:41.930Z,1.00
2023-04-18T17:19:10.056Z,1.00
2023-04-18T17:21:37.402Z,1.00
2023-04-18T17:24:07.109Z,1.00
2023-04-18T17:26:35.762Z,1.00
2023-04-18T17:29:04.750Z,1.00
2023-04-18T17:31:32.227Z,1.00
2023-04-18T17:34:00.035Z,1.00
2023-04-18T17:36:27.266Z,1.00
2023-04-18T17:38:54.510Z,1.00
2023-04-18T17:41:21.964Z,2.60
2023-04-18T17:43:51.084Z,1.00
2023-04-18T17:46:18.234Z,2.50
2023-04-18T17:48:45.433Z,3.30
2023-04-18T17:51:12.427Z,5.30
2023-04-18T17:53:39.348Z,4.00
2023-04-18T17:56:06.421Z,6.60
2023-04-18T17:58:33.291Z,11.70
2023-04-18T18:01:00.284Z,11.90
2023-04-18T18:03:27.725Z,17.50
2023-04-18T18:05:55.198Z,22.20
2023-04-18T18:08:22.793Z,22.30
2023-04-18T18:10:50.069Z,24.90
2023-04-18T18:13:17.136Z,24.70
2023-04-18T18:15:43.964Z,33.40
2023-04-18T18:18:10.971Z,39.10
2023-04-18T18:20:37.936Z,40.10
2023-04-18T18:23:04.842Z,45.70
2023-04-18T18:25:31.714Z,73.20
2023-04-18T18:27:58.606Z,56.40
2023-04-18T18:30:25.641Z,60.40
2023-04-18T18:32:53.579Z,77.00
2023-04-18T18:35:20.737Z,76.40
2023-04-18T18:37:47.998Z,77.20
2023-04-18T18:40:15.454Z,71.80
2023-04-18T18:42:42.667Z,92.60
2023-04-18T18:45:10.470Z,93.00
2023-04-18T18:47:39.796Z,91.20
2023-04-18T18:50:07.851Z,97.30
2023-04-18T18:52:34.900Z,99.90
2023-04-18T18:55:01.922Z,99.90
2023-04-18T18:57:28.794Z,99.90
2023-04-18T18:59:56.089Z,99.90
2023-04-18T19:02:23.367Z,99.90
2023-04-18T19:04:50.478Z,99.90
2023-04-18T19:07:17.810Z,99.90
2023-04-18T19:09:46.402Z,99.90
2023-04-18T19:12:13.437Z,99.90
2023-04-18T19:14:42.286Z,99.90
2023-04-18T19:17:09.397Z,99.90
2023-04-18T19:19:36.587Z,99.90
2023-04-18T19:22:03.477Z,99.90
2023-04-18T19:24:32.162Z,99.90
2023-04-18T19:26:59.794Z,99.90
2023-04-18T19:29:26.962Z,99.90
2023-04-18T19:31:54.003Z,99.90
2023-04-18T19:34:22.266Z,99.90
2023-04-18T19:36:49.381Z,99.90
2023-04-18T19:39:17.643Z,99.90
2023-04-18T19:41:45.990Z,99.90
2023-04-18T19:44:13.236Z,99.90
2023-04-18T19:46:40.260Z,99.90
2023-04-18T19:49:07.279Z,99.90
2023-04-18T19:51:34.380Z,99.90
2023-04-18T19:54:01.470Z,99.90
2023-04-18T19:56:28.334Z,99.90
2023-04-18T19:58:55.327Z,99.90
2023-04-18T20:01:23.675Z,99.90
2023-04-18T20:03:51.068Z,99.90
2023-04-18T20:06:18.484Z,99.90
2023-04-18T20:08:46.425Z,99.90
2023-04-18T20:11:14.354Z,99.90
2023-04-18T20:13:41.825Z,99.90
2023-04-18T20:16:10.951Z,99.90
2023-04-18T20:18:39.920Z,99.90
2023-04-18T20:21:08.433Z,99.90
2023-04-18T20:23:36.402Z,99.90
2023-04-18T20:26:04.389Z,99.90
2023-04-18T20:28:32.757Z,99.90
2023-04-18T20:30:59.723Z,99.90
2023-04-18T20:33:26.715Z,99.90
2023-04-18T20:35:57.396Z,99.90
2023-04-18T20:38:26.004Z,1.00
2023-04-18T20:40:54.275Z,1.00
2023-04-18T20:43:21.412Z,1.00
2023-04-18T20:45:51.793Z,1.00
2023-04-18T20:48:19.075Z,1.00
2023-04-18T20:50:51.598Z,1.00
2023-04-18T20:53:27.159Z,1.00
2023-04-18T20:55:54.223Z,1.00
2023-04-18T20:58:21.281Z,1.00
2023-04-18T21:00:49.304Z,1.00
2023-04-18T21:03:17.221Z,1.00
2023-04-18T21:05:45.136Z,1.00
2023-04-18T21:08:12.508Z,99.90
2023-04-18T21:10:39.806Z,1.00
2023-04-18T21:13:06.952Z,1.00
2023-04-18T21:15:35.631Z,99.90
2023-04-18T21:18:02.509Z,99.90
2023-04-18T21:20:29.961Z,1.00
2023-04-18T21:22:57.075Z,99.90
2023-04-18T21:25:23.966Z,99.90
2023-04-18T21:27:50.938Z,99.90
2023-04-18T21:30:18.339Z,99.90
2023-04-18T21:32:47.113Z,99.90
2023-04-18T21:35:14.101Z,99.90
2023-04-18T21:37:41.387Z,99.90
2023-04-18T21:40:08.957Z,99.90
2023-04-18T21:42:37.788Z,99.90
2023-04-18T21:45:06.316Z,99.90
2023-04-18T21:47:33.294Z,99.90
2023-04-18T21:50:00.265Z,99.90
2023-04-18T21:52:27.151Z,99.90
2023-04-18T21:54:54.099Z,99.90
2023-04-18T21:57:21.150Z,99.90
2023-04-18T21:59:48.160Z,99.90
2023-04-18T22:02:15.538Z,99.90
2023-04-18T22:04:45.856Z,99.90
2023-04-18T22:07:13.518Z,99.90
2023-04-18T22:09:40.668Z,99.90
2023-04-18T22:12:08.543Z,99.90
2023-04-18T22:14:35.483Z,99.90
2023-04-18T22:17:04.755Z,99.90
2023-04-18T22:19:32.679Z,99.90
2023-04-18T22:21:59.584Z,99.90
2023-04-18T22:24:26.612Z,99.90
2023-04-18T22:26:53.504Z,99.90
2023-04-18T22:29:20.464Z,99.90
2023-04-18T22:31:47.363Z,99.90
2023-04-18T22:34:14.653Z,99.90
2023-04-18T22:36:42.740Z,99.90
2023-04-18T22:39:10.122Z,99.90
2023-04-18T22:41:37.038Z,99.90
2023-04-18T22:44:05.175Z,99.90
2023-04-18T22:46:32.956Z,99.90
2023-04-18T22:48:59.999Z,99.90
2023-04-18T22:51:28.697Z,99.90
2023-04-18T22:53:56.492Z,99.90
2023-04-18T22:56:23.558Z,99.90
2023-04-18T22:58:50.736Z,99.90
2023-04-18T23:01:17.713Z,99.90
2023-04-18T23:03:45.049Z,99.90
2023-04-18T23:06:12.476Z,99.90
2023-04-18T23:08:39.386Z,99.90
2023-04-18T23:11:06.702Z,99.90
2023-04-18T23:13:33.588Z,99.90
2023-04-18T23:16:00.623Z,99.90
2023-04-18T23:18:30.005Z,99.90
2023-04-18T23:20:56.918Z,99.90
2023-04-18T23:23:23.804Z,99.90
2023-04-18T23:25:50.721Z,99.90
2023-04-18T23:28:17.886Z,99.90
2023-04-18T23:30:45.029Z,99.90
2023-04-18T23:33:11.959Z,99.90
2023-04-18T23:35:38.806Z,99.90
2023-04-18T23:38:05.755Z,1.00
2023-04-18T23:40:32.650Z,1.00
2023-04-18T23:42:59.526Z,1.00
2023-04-18T23:45:26.485Z,1.00
2023-04-18T23:47:53.703Z,1.00
2023-04-18T23:50:20.826Z,1.00
2023-04-18T23:52:47.691Z,1.00
2023-04-18T23:55:14.830Z,1.00
2023-04-18T23:57:41.666Z,1.00
